Disclaimer

Please do not use the information listed here in-flight or in-navigation, as they are not provided to us by the airports but are provided by volunteers, so they might be outdated.

Search


Regions


Airport information page

No radio frequency information is available.

Airport informations:
Latitude: 17° 32' 00.35" N
Longitude: 091° 59' 04.26" W
Elevation: 200 feet - 61 meters
Operating hours: From sunrise to sunset (SR-SS)
Operating agency: Civil government, landing fees and diplomatic clearance may be required
Timezone: UTC-6(-5DT) - First Sunday in April to the last Saturday in October
Fuel: N/A

Runway information:
09/27 - 4888 x 82 feet< - >1490 x 25 meters

Recent METARs:
MMPQ 131447Z 00000KT 7SM SCT015 BKN120 BKN200 26/24 A2989 RMK 8/818 HZY
MMPQ 131447Z 00000KT 7SM SCT015 BKN120 BKN200 26/24 A2989 RMK 8/818 HZY
MMPQ 131543Z 00000KT 7SM SCT020 BKN120 BKN200 27/24 A2989 RMK 8/818 HZY

Airport on the map: